Terminal Aerodrome Forecast
Issued by NWS

Home | Current Version | Previous Version | Text Only | Print | Product List | Glossary On
Versions: 1 2 3 4 5 6 7 8 9 10 11 12 13 14 15 16 17
385
FTUS41 KCLE 231857 AAA
TAFFDY
TAF AMD
KFDY 231857Z 2319/2418 28011KT P6SM BKN060
     FM240000 31005KT P6SM FEW045
     FM241500 36007KT P6SM SCT050=

USA.gov is the U.S. government's official web portal to all federal, state and local government web resources and services.